createdAt,value
2019-03-03T00:01:01.329Z,10.33
2019-03-03T00:03:28.911Z,11.53
2019-03-03T00:05:59.487Z,12.00
2019-03-03T00:08:27.094Z,11.10
2019-03-03T00:10:54.636Z,11.20
2019-03-03T00:13:22.397Z,11.13
2019-03-03T00:15:50.022Z,9.83
2019-03-03T00:18:17.726Z,9.27
2019-03-03T00:20:46.162Z,9.90
2019-03-03T00:23:14.451Z,8.40
2019-03-03T00:25:42.195Z,8.63
2019-03-03T00:28:10.177Z,9.03
2019-03-03T00:30:37.826Z,8.77
2019-03-03T00:33:05.516Z,9.80
2019-03-03T00:35:39.106Z,10.60
2019-03-03T00:38:25.949Z,9.20
2019-03-03T00:41:11.548Z,10.67
2019-03-03T00:43:49.022Z,10.23
2019-03-03T00:46:35.823Z,10.37
2019-03-03T00:49:34.645Z,9.73
2019-03-03T00:52:08.312Z,9.07
2019-03-03T00:54:55.085Z,7.47
2019-03-03T00:58:00.240Z,7.90
2019-03-03T01:00:41.773Z,6.77
2019-03-03T01:03:31.805Z,6.37
2019-03-03T01:06:10.863Z,6.37
2019-03-03T01:08:53.959Z,7.00
2019-03-03T01:11:50.240Z,6.10
2019-03-03T01:14:28.040Z,6.30
2019-03-03T01:17:01.523Z,5.80
2019-03-03T01:19:48.899Z,6.40
2019-03-03T01:22:23.083Z,6.00
2019-03-03T01:24:55.142Z,6.27
2019-03-03T01:27:23.587Z,5.63
2019-03-03T01:29:51.432Z,5.13
2019-03-03T01:32:19.018Z,5.47
2019-03-03T01:34:46.485Z,5.60
2019-03-03T01:37:13.927Z,4.90
2019-03-03T01:39:41.430Z,5.00
2019-03-03T01:42:08.683Z,4.53
2019-03-03T01:44:36.083Z,4.53
2019-03-03T01:47:03.447Z,4.97
2019-03-03T01:49:30.879Z,4.47
2019-03-03T01:51:58.120Z,4.27
2019-03-03T01:54:25.367Z,4.60
2019-03-03T01:56:52.671Z,4.30
2019-03-03T01:59:20.015Z,4.17
2019-03-03T02:01:47.272Z,4.67
2019-03-03T02:04:14.526Z,4.77
2019-03-03T02:06:41.807Z,4.10
2019-03-03T02:09:10.764Z,4.90
2019-03-03T02:11:38.112Z,4.63
2019-03-03T02:14:05.550Z,4.07
2019-03-03T02:16:32.841Z,4.60
2019-03-03T02:19:00.108Z,3.70
2019-03-03T02:21:27.381Z,3.90
2019-03-03T02:23:54.653Z,4.37
2019-03-03T02:26:21.895Z,4.27
2019-03-03T02:28:49.174Z,4.47
2019-03-03T02:31:16.524Z,4.53
2019-03-03T02:33:43.787Z,4.40
2019-03-03T02:36:11.047Z,4.27
2019-03-03T02:38:38.289Z,4.33
2019-03-03T02:41:05.639Z,4.23
2019-03-03T02:43:37.729Z,3.50
2019-03-03T02:46:04.988Z,3.60
2019-03-03T02:48:32.240Z,3.50
2019-03-03T02:50:59.500Z,4.73
2019-03-03T02:53:26.764Z,3.80
2019-03-03T02:55:54.038Z,3.57
2019-03-03T02:58:21.284Z,3.33
2019-03-03T03:01:00.767Z,4.43
2019-03-03T03:03:28.112Z,3.53
2019-03-03T03:06:18.808Z,3.70
2019-03-03T03:09:04.245Z,3.53
2019-03-03T03:12:09.121Z,3.50
2019-03-03T03:14:42.508Z,3.03
2019-03-03T03:17:29.285Z,3.43
2019-03-03T03:20:16.041Z,3.37
2019-03-03T03:23:14.671Z,2.93
2019-03-03T03:26:00.147Z,3.10
2019-03-03T03:28:44.687Z,4.13
2019-03-03T03:31:30.276Z,2.80
2019-03-03T03:34:06.004Z,3.07
2019-03-03T03:36:43.100Z,3.40
2019-03-03T03:39:32.575Z,3.57
2019-03-03T03:42:28.467Z,3.43
2019-03-03T03:45:18.077Z,2.90
2019-03-03T03:47:54.219Z,3.50
2019-03-03T03:50:27.118Z,2.90
2019-03-03T03:53:12.699Z,3.83
2019-03-03T03:56:08.784Z,4.23
2019-03-03T03:58:55.550Z,3.20
2019-03-03T04:01:54.328Z,3.67
2019-03-03T04:04:31.804Z,4.10
2019-03-03T04:07:07.409Z,3.60
2019-03-03T04:09:56.799Z,4.17
2019-03-03T04:12:52.616Z,3.63
2019-03-03T04:15:45.684Z,3.40
2019-03-03T04:18:32.468Z,3.90
2019-03-03T04:21:17.896Z,4.03
2019-03-03T04:24:03.107Z,3.27
2019-03-03T04:26:52.495Z,3.97
2019-03-03T04:29:37.956Z,3.80
2019-03-03T04:32:28.305Z,3.83
2019-03-03T04:35:04.385Z,3.73
2019-03-03T04:37:54.127Z,4.50
2019-03-03T04:40:46.528Z,4.70
2019-03-03T04:43:30.371Z,4.00
2019-03-03T04:46:15.758Z,4.50
2019-03-03T04:49:09.049Z,3.70
2019-03-03T04:51:56.930Z,5.20
2019-03-03T04:54:44.097Z,4.40
2019-03-03T04:57:37.121Z,4.30
2019-03-03T05:00:18.249Z,4.20
2019-03-03T05:02:54.069Z,4.90
2019-03-03T05:05:30.835Z,4.73
2019-03-03T05:08:15.063Z,4.87
2019-03-03T05:11:04.372Z,5.63
2019-03-03T05:13:40.197Z,5.17
2019-03-03T05:16:26.968Z,5.23
2019-03-03T05:18:57.539Z,4.87
2019-03-03T05:21:24.786Z,5.40
2019-03-03T05:23:52.033Z,6.13
2019-03-03T05:26:19.292Z,6.20
2019-03-03T05:28:46.551Z,5.73
2019-03-03T05:31:13.798Z,5.23
2019-03-03T05:33:41.039Z,5.30
2019-03-03T05:36:08.311Z,5.83
2019-03-03T05:38:35.652Z,5.13
2019-03-03T05:41:02.910Z,5.37
2019-03-03T05:43:30.327Z,5.10
2019-03-03T05:45:57.591Z,6.00
2019-03-03T05:48:24.843Z,5.67
2019-03-03T05:50:52.188Z,5.43
2019-03-03T05:53:19.429Z,4.87
2019-03-03T05:55:46.659Z,4.87
2019-03-03T05:58:13.942Z,4.67
2019-03-03T06:00:41.183Z,5.77
2019-03-03T06:03:08.538Z,4.77
2019-03-03T06:05:35.793Z,5.20
2019-03-03T06:08:03.043Z,5.13
2019-03-03T06:10:30.300Z,4.83
2019-03-03T06:12:57.844Z,4.80
2019-03-03T06:15:25.095Z,4.70
2019-03-03T06:17:52.359Z,5.03
2019-03-03T06:20:19.616Z,5.73
2019-03-03T06:22:46.877Z,4.07
2019-03-03T06:25:14.167Z,4.53
2019-03-03T06:27:41.516Z,4.70
2019-03-03T06:30:10.261Z,5.30
2019-03-03T06:32:37.500Z,4.70
2019-03-03T06:35:05.581Z,5.10
2019-03-03T06:37:32.851Z,4.77
2019-03-03T06:40:00.166Z,4.20
2019-03-03T06:42:27.655Z,4.80
2019-03-03T06:44:54.948Z,4.77
2019-03-03T06:47:22.213Z,5.53
2019-03-03T06:49:49.495Z,4.70
2019-03-03T06:52:16.746Z,5.40
2019-03-03T06:54:44.000Z,4.00
2019-03-03T06:57:11.263Z,4.93
2019-03-03T06:59:38.593Z,4.47
2019-03-03T07:02:05.941Z,4.53
2019-03-03T07:04:33.273Z,4.60
2019-03-03T07:07:00.502Z,3.77
2019-03-03T07:09:27.760Z,4.57
2019-03-03T07:11:55.008Z,3.70
2019-03-03T07:14:22.277Z,4.10
2019-03-03T07:16:49.549Z,3.87
2019-03-03T07:19:16.792Z,4.30
2019-03-03T07:21:44.059Z,4.07
2019-03-03T07:24:11.301Z,4.23
2019-03-03T07:26:38.542Z,4.53
2019-03-03T07:29:05.819Z,3.97
2019-03-03T07:31:33.093Z,4.53
2019-03-03T07:34:01.912Z,4.47
2019-03-03T07:36:29.285Z,3.70
2019-03-03T07:38:56.554Z,3.93
2019-03-03T07:41:23.803Z,4.53
2019-03-03T07:43:51.039Z,3.87
2019-03-03T07:46:18.351Z,4.17
2019-03-03T07:48:45.577Z,3.97
2019-03-03T07:51:12.844Z,4.57
2019-03-03T07:53:40.075Z,4.53
2019-03-03T07:56:07.320Z,4.77
2019-03-03T07:58:34.597Z,3.67
2019-03-03T08:01:01.869Z,3.80
2019-03-03T08:03:29.096Z,4.17
2019-03-03T08:05:56.335Z,3.90
2019-03-03T08:08:23.594Z,4.40
2019-03-03T08:10:50.852Z,3.77
2019-03-03T08:13:18.095Z,4.27
2019-03-03T08:15:45.355Z,4.40
2019-03-03T08:18:13.115Z,4.07
2019-03-03T08:20:40.360Z,4.33
2019-03-03T08:23:07.628Z,4.00
2019-03-03T08:25:34.867Z,3.93
2019-03-03T08:28:02.112Z,3.70
2019-03-03T08:30:30.998Z,4.20
2019-03-03T08:32:58.521Z,3.60
2019-03-03T08:35:25.807Z,4.00
2019-03-03T08:37:53.046Z,4.27
2019-03-03T08:40:20.299Z,4.07
2019-03-03T08:43:00.014Z,3.80
2019-03-03T08:45:58.873Z,5.20
2019-03-03T08:48:54.722Z,4.20
2019-03-03T08:51:34.015Z,3.93
2019-03-03T08:54:09.765Z,3.43
2019-03-03T08:56:54.964Z,4.47
2019-03-03T08:59:59.701Z,3.63
2019-03-03T09:02:39.015Z,4.17
2019-03-03T09:05:21.289Z,4.00
2019-03-03T09:08:06.767Z,3.50
2019-03-03T09:10:52.361Z,3.83
2019-03-03T09:13:51.469Z,3.20
2019-03-03T09:16:30.194Z,3.63
2019-03-03T09:19:11.444Z,4.20
2019-03-03T09:21:57.160Z,5.03
2019-03-03T09:24:43.946Z,4.13
2019-03-03T09:27:29.407Z,4.60
2019-03-03T09:30:07.256Z,4.17
2019-03-03T09:32:52.835Z,3.83
2019-03-03T09:35:42.262Z,5.37
2019-03-03T09:38:18.072Z,3.93
2019-03-03T09:41:04.840Z,4.67
2019-03-03T09:43:45.936Z,4.67
2019-03-03T09:46:35.476Z,4.53
2019-03-03T09:49:21.099Z,4.70
2019-03-03T09:52:17.543Z,5.07
2019-03-03T09:54:59.864Z,4.90
2019-03-03T09:57:46.727Z,4.70
2019-03-03T10:00:33.508Z,3.90
2019-03-03T10:03:09.449Z,4.33
2019-03-03T10:05:56.211Z,2.83
2019-03-03T10:08:41.626Z,3.97
2019-03-03T10:11:43.820Z,3.73
2019-03-03T10:14:30.642Z,3.90
2019-03-03T10:17:17.422Z,3.57
2019-03-03T10:20:04.212Z,3.40
2019-03-03T10:22:37.788Z,2.40
2019-03-03T10:25:29.493Z,3.20
2019-03-03T10:28:24.577Z,3.40
2019-03-03T10:31:16.981Z,2.63
2019-03-03T10:33:57.779Z,3.40
2019-03-03T10:36:48.352Z,2.37
2019-03-03T10:39:33.876Z,2.83
2019-03-03T10:42:27.842Z,2.97
2019-03-03T10:45:01.466Z,2.60
2019-03-03T10:47:51.254Z,3.70
2019-03-03T10:50:40.100Z,3.17
2019-03-03T10:53:18.000Z,3.13
2019-03-03T10:55:53.759Z,2.37
2019-03-03T10:58:27.852Z,2.47
2019-03-03T11:01:39.141Z,2.63
2019-03-03T11:04:14.358Z,2.23
2019-03-03T11:07:03.948Z,2.87
2019-03-03T11:09:56.531Z,3.23
2019-03-03T11:12:41.477Z,3.07
2019-03-03T11:15:45.195Z,2.47
2019-03-03T11:18:31.511Z,2.10
2019-03-03T11:21:07.049Z,2.57
2019-03-03T11:23:52.711Z,2.50
2019-03-03T11:26:42.336Z,2.33
2019-03-03T11:29:32.017Z,2.20
2019-03-03T11:32:27.812Z,2.80
2019-03-03T11:35:10.229Z,3.10
2019-03-03T11:38:05.139Z,3.13
2019-03-03T11:41:03.795Z,2.30
2019-03-03T11:44:02.701Z,2.77
2019-03-03T11:46:43.272Z,4.23
2019-03-03T11:49:25.443Z,2.93
2019-03-03T11:52:21.175Z,3.43
2019-03-03T11:55:10.732Z,2.57
2019-03-03T11:58:00.509Z,2.13
2019-03-03T12:00:50.147Z,3.40
2019-03-03T12:03:33.058Z,6.50
2019-03-03T12:06:15.680Z,4.33
2019-03-03T12:09:08.820Z,2.10
2019-03-03T12:11:48.476Z,2.83
2019-03-03T12:14:41.710Z,3.03
2019-03-03T12:17:28.635Z,2.53
2019-03-03T12:20:06.151Z,3.03
2019-03-03T12:22:56.248Z,2.63
2019-03-03T12:25:49.316Z,2.30
2019-03-03T12:28:45.194Z,2.57
2019-03-03T12:31:27.515Z,2.27
2019-03-03T12:34:23.512Z,2.53
2019-03-03T12:37:10.322Z,2.80
2019-03-03T12:39:51.024Z,2.70
2019-03-03T12:42:26.377Z,3.07
2019-03-03T12:45:04.879Z,2.97
2019-03-03T12:47:54.653Z,3.27
2019-03-03T12:50:40.155Z,3.53
2019-03-03T12:53:38.706Z,2.90
2019-03-03T12:56:14.577Z,2.07
2019-03-03T12:58:59.495Z,2.47
2019-03-03T13:01:49.040Z,2.23
2019-03-03T13:04:23.972Z,3.13
2019-03-03T13:07:19.589Z,2.50
2019-03-03T13:10:01.498Z,2.20
2019-03-03T13:12:57.563Z,2.40
2019-03-03T13:15:35.424Z,2.37
2019-03-03T13:18:14.646Z,2.40
2019-03-03T13:21:07.233Z,2.60
2019-03-03T13:23:51.840Z,2.70
2019-03-03T13:26:31.819Z,3.10
2019-03-03T13:29:27.471Z,2.73
2019-03-03T13:32:20.057Z,2.57
2019-03-03T13:35:05.470Z,1.93
2019-03-03T13:37:57.995Z,1.60
2019-03-03T13:40:44.753Z,2.43
2019-03-03T13:43:12.178Z,2.30
2019-03-03T13:45:39.614Z,2.80
2019-03-03T13:48:06.983Z,2.70
2019-03-03T13:50:34.449Z,2.10
2019-03-03T13:53:02.704Z,2.40
2019-03-03T13:55:29.956Z,2.10
2019-03-03T13:57:57.205Z,1.77
2019-03-03T14:00:25.165Z,2.13
2019-03-03T14:02:52.427Z,2.27
2019-03-03T14:05:21.370Z,2.40
2019-03-03T14:07:48.635Z,1.93
2019-03-03T14:10:15.975Z,2.47
2019-03-03T14:12:43.279Z,2.30
2019-03-03T14:15:10.664Z,2.27
2019-03-03T14:17:38.251Z,1.97
2019-03-03T14:20:11.416Z,2.47
2019-03-03T14:22:38.828Z,1.77
2019-03-03T14:25:06.529Z,2.13
2019-03-03T14:27:33.787Z,2.40
2019-03-03T14:30:01.414Z,2.53
2019-03-03T14:32:28.723Z,1.97
2019-03-03T14:34:56.266Z,1.67
2019-03-03T14:37:24.226Z,2.67
2019-03-03T14:39:52.242Z,1.63
2019-03-03T14:42:19.853Z,1.93
2019-03-03T14:44:47.444Z,2.27
2019-03-03T14:47:15.343Z,2.00
2019-03-03T14:49:42.872Z,2.17
2019-03-03T14:52:10.448Z,2.00
2019-03-03T14:54:38.023Z,1.77
2019-03-03T14:57:05.496Z,1.97
2019-03-03T14:59:33.086Z,1.57
2019-03-03T15:02:01.147Z,1.17
2019-03-03T15:04:28.455Z,1.70
2019-03-03T15:06:55.924Z,1.50
2019-03-03T15:09:23.781Z,1.33
2019-03-03T15:11:52.346Z,1.03
2019-03-03T15:14:19.834Z,1.83
2019-03-03T15:16:47.361Z,1.60
2019-03-03T15:19:15.226Z,0.93
2019-03-03T15:21:43.728Z,1.67
2019-03-03T15:24:11.296Z,2.40
2019-03-03T15:26:38.842Z,1.37
2019-03-03T15:29:09.684Z,1.33
2019-03-03T15:31:38.083Z,1.60
2019-03-03T15:34:05.857Z,1.30
2019-03-03T15:36:35.161Z,2.30
2019-03-03T15:39:04.420Z,2.00
2019-03-03T15:41:31.937Z,2.43
2019-03-03T15:43:59.431Z,2.03
2019-03-03T15:46:26.965Z,1.93
2019-03-03T15:48:54.319Z,1.80
2019-03-03T15:51:21.624Z,1.83
2019-03-03T15:53:48.959Z,1.80
2019-03-03T15:56:16.273Z,1.87
2019-03-03T15:58:43.614Z,2.07
2019-03-03T16:01:14.101Z,1.63
2019-03-03T16:03:41.352Z,2.20
2019-03-03T16:06:08.617Z,2.33
2019-03-03T16:08:35.884Z,1.50
2019-03-03T16:11:03.123Z,2.20
2019-03-03T16:13:30.372Z,2.80
2019-03-03T16:15:57.649Z,2.03
2019-03-03T16:18:24.920Z,2.07
2019-03-03T16:20:52.298Z,1.80
2019-03-03T16:23:19.559Z,1.93
2019-03-03T16:25:46.833Z,1.50
2019-03-03T16:28:14.104Z,1.63
2019-03-03T16:30:41.371Z,2.13
2019-03-03T16:33:08.632Z,2.20
2019-03-03T16:35:35.916Z,2.07
2019-03-03T16:38:03.556Z,2.33
2019-03-03T16:40:39.308Z,2.27
2019-03-03T16:43:00.019Z,2.10
2019-03-03T16:45:27.288Z,2.70
2019-03-03T16:47:54.563Z,2.40
2019-03-03T16:50:22.028Z,1.80
2019-03-03T16:52:49.281Z,2.20
2019-03-03T16:55:16.703Z,2.37
2019-03-03T16:57:43.988Z,1.83
2019-03-03T17:00:34.732Z,2.10
2019-03-03T17:03:02.257Z,2.00
2019-03-03T17:05:29.740Z,1.80
2019-03-03T17:07:57.158Z,2.77
2019-03-03T17:10:24.902Z,3.50
2019-03-03T17:12:52.242Z,2.57
2019-03-03T17:15:20.708Z,2.70
2019-03-03T17:17:47.987Z,1.90
2019-03-03T17:20:15.244Z,2.20
2019-03-03T17:22:42.505Z,1.87
2019-03-03T17:25:12.223Z,2.13
2019-03-03T17:27:39.524Z,2.07
2019-03-03T17:30:09.816Z,1.70
2019-03-03T17:32:37.328Z,1.87
2019-03-03T17:35:04.736Z,2.30
2019-03-03T17:37:32.038Z,2.03
2019-03-03T17:39:59.322Z,3.27
2019-03-03T17:42:26.690Z,3.63
2019-03-03T17:44:53.943Z,4.27
2019-03-03T17:47:21.273Z,3.57
2019-03-03T17:49:48.514Z,2.80
2019-03-03T17:52:15.759Z,3.13
2019-03-03T17:54:43.024Z,3.23
2019-03-03T17:57:10.392Z,2.43
2019-03-03T17:59:37.651Z,1.70
2019-03-03T18:02:05.004Z,2.23
2019-03-03T18:04:32.236Z,2.17
2019-03-03T18:06:59.493Z,1.60
2019-03-03T18:09:26.746Z,2.03
2019-03-03T18:11:53.983Z,2.43
2019-03-03T18:14:21.344Z,6.60
2019-03-03T18:16:48.623Z,11.57
2019-03-03T18:19:15.893Z,11.53
2019-03-03T18:21:45.511Z,5.53
2019-03-03T18:24:12.987Z,4.10
2019-03-03T18:26:40.303Z,3.07
2019-03-03T18:29:07.612Z,2.53
2019-03-03T18:31:34.882Z,2.00
2019-03-03T18:34:02.151Z,2.67
2019-03-03T18:36:29.636Z,3.33
2019-03-03T18:38:56.903Z,2.97
2019-03-03T18:41:24.208Z,2.67
2019-03-03T18:43:51.479Z,2.83
2019-03-03T18:46:18.812Z,2.57
2019-03-03T18:48:46.084Z,2.17
2019-03-03T18:51:13.464Z,2.17
2019-03-03T18:53:40.891Z,2.10
2019-03-03T18:56:08.332Z,2.50
2019-03-03T18:58:35.689Z,2.10
2019-03-03T19:01:04.306Z,2.17
2019-03-03T19:03:31.580Z,3.10
2019-03-03T19:05:58.868Z,3.07
2019-03-03T19:08:26.149Z,2.80
2019-03-03T19:10:53.438Z,2.53
2019-03-03T19:13:20.795Z,2.80
2019-03-03T19:15:48.134Z,3.40
2019-03-03T19:18:15.470Z,3.27
2019-03-03T19:20:42.749Z,3.43
2019-03-03T19:23:10.045Z,3.00
2019-03-03T19:25:37.393Z,3.57
2019-03-03T19:28:04.652Z,2.50
2019-03-03T19:30:31.947Z,2.90
2019-03-03T19:33:08.624Z,3.87
2019-03-03T19:35:36.064Z,3.13
2019-03-03T19:38:03.368Z,3.00
2019-03-03T19:40:30.752Z,3.47
2019-03-03T19:42:58.023Z,2.93
2019-03-03T19:45:27.223Z,3.37
2019-03-03T19:47:54.478Z,3.30
2019-03-03T19:50:21.900Z,2.43
2019-03-03T19:52:49.290Z,2.70
2019-03-03T19:55:17.073Z,2.53
2019-03-03T19:57:44.437Z,3.00
2019-03-03T20:00:15.866Z,2.57
2019-03-03T20:02:43.124Z,2.70
2019-03-03T20:05:10.380Z,2.73
2019-03-03T20:07:37.625Z,3.30
2019-03-03T20:10:06.190Z,3.27
2019-03-03T20:12:33.444Z,2.90
2019-03-03T20:15:00.769Z,2.90
2019-03-03T20:17:28.074Z,2.80
2019-03-03T20:19:55.338Z,2.63
2019-03-03T20:22:22.633Z,2.30
2019-03-03T20:24:49.981Z,3.23
2019-03-03T20:27:17.211Z,3.30
2019-03-03T20:29:44.484Z,2.80
2019-03-03T20:32:11.730Z,2.97
2019-03-03T20:34:39.003Z,3.20
2019-03-03T20:37:06.241Z,4.40
2019-03-03T20:39:33.567Z,3.23
2019-03-03T20:42:00.909Z,2.80
2019-03-03T20:44:28.141Z,2.67
2019-03-03T20:46:55.407Z,2.83
2019-03-03T20:49:22.681Z,2.97
2019-03-03T20:51:50.006Z,2.87
2019-03-03T20:54:17.336Z,2.60
2019-03-03T20:56:45.051Z,3.03
2019-03-03T20:59:12.344Z,7.70
2019-03-03T21:01:39.655Z,5.50
2019-03-03T21:04:06.907Z,4.40
2019-03-03T21:06:34.603Z,3.03
2019-03-03T21:09:01.851Z,3.10
2019-03-03T21:11:29.106Z,2.43
2019-03-03T21:13:56.392Z,3.40
2019-03-03T21:16:23.642Z,2.73
2019-03-03T21:18:50.878Z,2.57
2019-03-03T21:21:18.127Z,3.27
2019-03-03T21:23:45.385Z,2.50
2019-03-03T21:26:12.636Z,2.93
2019-03-03T21:28:39.899Z,2.77
2019-03-03T21:31:07.168Z,2.30
2019-03-03T21:33:34.414Z,2.53
2019-03-03T21:36:01.675Z,2.60
2019-03-03T21:38:28.943Z,1.90
2019-03-03T21:40:56.187Z,2.50
2019-03-03T21:43:23.443Z,1.53
2019-03-03T21:45:50.708Z,2.37
2019-03-03T21:48:17.954Z,2.10
2019-03-03T21:50:45.300Z,2.23
2019-03-03T21:53:12.547Z,2.00
2019-03-03T21:55:39.870Z,2.50
2019-03-03T21:58:07.515Z,2.07
2019-03-03T22:00:36.353Z,2.33
2019-03-03T22:03:04.475Z,2.00
2019-03-03T22:05:31.822Z,2.90
2019-03-03T22:07:59.076Z,2.60
2019-03-03T22:10:30.035Z,2.83
2019-03-03T22:12:59.180Z,2.60
2019-03-03T22:15:27.051Z,2.37
2019-03-03T22:17:54.299Z,2.10
2019-03-03T22:20:21.531Z,2.37
2019-03-03T22:22:48.791Z,2.20
2019-03-03T22:25:16.021Z,2.20
2019-03-03T22:27:43.252Z,2.03
2019-03-03T22:30:10.536Z,2.27
2019-03-03T22:32:37.807Z,1.90
2019-03-03T22:35:05.201Z,2.30
2019-03-03T22:37:32.441Z,1.90
2019-03-03T22:39:59.756Z,1.83
2019-03-03T22:42:27.096Z,1.80
2019-03-03T22:44:54.336Z,1.83
2019-03-03T22:47:21.653Z,1.93
2019-03-03T22:49:49.959Z,2.10
2019-03-03T22:52:17.197Z,1.77
2019-03-03T22:54:44.440Z,2.27
2019-03-03T22:57:11.698Z,2.53
2019-03-03T22:59:38.943Z,2.87
2019-03-03T23:02:06.451Z,3.97
2019-03-03T23:05:30.575Z,3.80
2019-03-03T23:08:21.379Z,2.27
2019-03-03T23:11:24.445Z,2.17
2019-03-03T23:14:07.607Z,2.83
2019-03-03T23:17:37.735Z,3.10
2019-03-03T23:20:25.403Z,3.30
2019-03-03T23:23:38.411Z,5.13
2019-03-03T23:26:13.505Z,4.00
2019-03-03T23:28:34.913Z,4.77
2019-03-03T23:31:02.182Z,3.90
2019-03-03T23:33:29.447Z,3.50
2019-03-03T23:35:56.682Z,3.27
2019-03-03T23:38:24.079Z,4.07
2019-03-03T23:40:51.423Z,3.40
2019-03-03T23:43:18.670Z,3.20
2019-03-03T23:45:45.921Z,3.73
2019-03-03T23:48:13.595Z,6.20
2019-03-03T23:50:40.827Z,3.20
2019-03-03T23:53:08.188Z,4.30
2019-03-03T23:55:38.931Z,5.30
2019-03-03T23:58:06.155Z,3.13
